sensor_id;sensor_type;location;lat;lon;timestamp;pressure;altitude;pressure_sealevel;temperature;humidity
5500;BME280;2772;42.700;23.304;2024-01-30T00:00:01;97109.44;;;2.30;100.00
5500;BME280;2772;42.700;23.304;2024-01-30T00:02:28;97116.31;;;2.25;100.00
5500;BME280;2772;42.700;23.304;2024-01-30T00:04:56;97118.56;;;2.21;100.00
5500;BME280;2772;42.700;23.304;2024-01-30T00:07:23;97115.50;;;2.24;98.49
5500;BME280;2772;42.700;23.304;2024-01-30T00:09:50;97116.50;;;2.43;100.00
5500;BME280;2772;42.700;23.304;2024-01-30T00:12:16;97119.13;;;2.36;100.00
5500;BME280;2772;42.700;23.304;2024-01-30T00:14:43;97126.03;;;2.31;100.00
5500;BME280;2772;42.700;23.304;2024-01-30T00:17:10;97124.59;;;2.28;98.81
5500;BME280;2772;42.700;23.304;2024-01-30T00:19:36;97129.25;;;2.20;99.64
5500;BME280;2772;42.700;23.304;2024-01-30T00:22:05;97123.56;;;2.42;100.00
5500;BME280;2772;42.700;23.304;2024-01-30T00:24:32;97128.84;;;2.23;100.00
5500;BME280;2772;42.700;23.304;2024-01-30T00:26:58;97123.19;;;2.32;100.00
5500;BME280;2772;42.700;23.304;2024-01-30T00:29:27;97114.25;;;2.46;100.00
5500;BME280;2772;42.700;23.304;2024-01-30T00:31:56;97118.75;;;2.26;99.75
5500;BME280;2772;42.700;23.304;2024-01-30T00:34:23;97127.47;;;2.14;98.86
5500;BME280;2772;42.700;23.304;2024-01-30T00:36:49;97120.97;;;2.23;99.86
5500;BME280;2772;42.700;23.304;2024-01-30T00:39:17;97116.72;;;2.22;100.00
5500;BME280;2772;42.700;23.304;2024-01-30T00:41:44;97126.03;;;2.11;99.28
5500;BME280;2772;42.700;23.304;2024-01-30T00:44:11;97119.53;;;2.27;100.00
5500;BME280;2772;42.700;23.304;2024-01-30T00:46:38;97120.34;;;2.34;100.00
5500;BME280;2772;42.700;23.304;2024-01-30T00:49:04;97116.28;;;2.31;100.00
5500;BME280;2772;42.700;23.304;2024-01-30T00:51:31;97118.13;;;2.31;99.48
5500;BME280;2772;42.700;23.304;2024-01-30T00:53:58;97114.31;;;2.14;99.16
5500;BME280;2772;42.700;23.304;2024-01-30T00:56:26;97118.56;;;2.15;98.62
5500;BME280;2772;42.700;23.304;2024-01-30T00:58:53;97119.56;;;2.14;97.18
5500;BME280;2772;42.700;23.304;2024-01-30T01:01:19;97117.31;;;2.24;100.00
5500;BME280;2772;42.700;23.304;2024-01-30T01:03:46;97116.91;;;2.27;100.00
5500;BME280;2772;42.700;23.304;2024-01-30T01:06:13;97121.53;;;2.38;100.00
5500;BME280;2772;42.700;23.304;2024-01-30T01:08:40;97123.34;;;2.44;100.00
5500;BME280;2772;42.700;23.304;2024-01-30T01:11:07;97116.50;;;2.36;100.00
5500;BME280;2772;42.700;23.304;2024-01-30T01:13:35;97119.31;;;2.48;100.00
5500;BME280;2772;42.700;23.304;2024-01-30T01:16:02;97118.88;;;2.57;100.00
5500;BME280;2772;42.700;23.304;2024-01-30T01:18:29;97110.94;;;2.70;100.00
5500;BME280;2772;42.700;23.304;2024-01-30T01:20:55;97117.22;;;2.69;100.00
5500;BME280;2772;42.700;23.304;2024-01-30T01:23:22;97121.66;;;2.69;100.00
5500;BME280;2772;42.700;23.304;2024-01-30T01:25:49;97116.25;;;2.64;98.83
5500;BME280;2772;42.700;23.304;2024-01-30T01:28:15;97123.97;;;2.39;95.47
5500;BME280;2772;42.700;23.304;2024-01-30T01:30:44;97124.56;;;2.41;98.08
5500;BME280;2772;42.700;23.304;2024-01-30T01:33:10;97124.59;;;2.28;95.91
5500;BME280;2772;42.700;23.304;2024-01-30T01:35:39;97124.78;;;2.53;100.00
5500;BME280;2772;42.700;23.304;2024-01-30T01:38:06;97128.38;;;2.52;100.00
5500;BME280;2772;42.700;23.304;2024-01-30T01:40:32;97123.75;;;2.54;100.00
5500;BME280;2772;42.700;23.304;2024-01-30T01:43:03;97126.78;;;2.51;98.95
5500;BME280;2772;42.700;23.304;2024-01-30T01:45:30;97120.91;;;2.49;99.25
5500;BME280;2772;42.700;23.304;2024-01-30T01:47:58;97128.03;;;2.22;96.04
5500;BME280;2772;42.700;23.304;2024-01-30T01:50:25;97124.22;;;2.25;95.63
5500;BME280;2772;42.700;23.304;2024-01-30T01:52:52;97131.28;;;2.05;94.64
5500;BME280;2772;42.700;23.304;2024-01-30T01:55:21;97126.03;;;2.05;94.99
5500;BME280;2772;42.700;23.304;2024-01-30T01:57:49;97129.69;;;2.04;95.52
5500;BME280;2772;42.700;23.304;2024-01-30T02:00:17;97129.47;;;1.99;95.34
5500;BME280;2772;42.700;23.304;2024-01-30T02:02:45;97134.50;;;1.74;96.00
5500;BME280;2772;42.700;23.304;2024-01-30T02:05:14;97134.28;;;1.49;96.58
5500;BME280;2772;42.700;23.304;2024-01-30T02:07:41;97124.41;;;1.45;97.66
5500;BME280;2772;42.700;23.304;2024-01-30T02:10:08;97140.53;;;1.55;99.67
5500;BME280;2772;42.700;23.304;2024-01-30T02:12:35;97145.78;;;1.48;98.31
5500;BME280;2772;42.700;23.304;2024-01-30T02:15:02;97131.88;;;1.48;98.25
5500;BME280;2772;42.700;23.304;2024-01-30T02:17:30;97139.56;;;1.56;97.56
5500;BME280;2772;42.700;23.304;2024-01-30T02:19:57;97132.66;;;1.55;97.17
5500;BME280;2772;42.700;23.304;2024-01-30T02:22:25;97135.72;;;1.58;96.95
5500;BME280;2772;42.700;23.304;2024-01-30T02:24:52;97130.69;;;1.70;97.95
5500;BME280;2772;42.700;23.304;2024-01-30T02:27:18;97123.22;;;1.67;98.93
5500;BME280;2772;42.700;23.304;2024-01-30T02:29:45;97125.22;;;1.58;96.62
5500;BME280;2772;42.700;23.304;2024-01-30T02:32:12;97128.25;;;1.82;99.37
5500;BME280;2772;42.700;23.304;2024-01-30T02:34:39;97131.09;;;1.87;97.08
5500;BME280;2772;42.700;23.304;2024-01-30T02:37:06;97123.00;;;1.82;95.20
5500;BME280;2772;42.700;23.304;2024-01-30T02:39:34;97122.81;;;2.03;96.07
5500;BME280;2772;42.700;23.304;2024-01-30T02:42:00;97131.09;;;2.00;94.77
5500;BME280;2772;42.700;23.304;2024-01-30T02:44:27;97118.56;;;1.82;93.10
5500;BME280;2772;42.700;23.304;2024-01-30T02:46:54;97123.84;;;1.95;95.33
5500;BME280;2772;42.700;23.304;2024-01-30T02:49:20;97130.09;;;2.07;95.03
5500;BME280;2772;42.700;23.304;2024-01-30T02:51:47;97123.00;;;2.08;93.69
5500;BME280;2772;42.700;23.304;2024-01-30T02:54:14;97120.78;;;1.85;92.03
5500;BME280;2772;42.700;23.304;2024-01-30T02:56:42;97135.34;;;1.94;92.64
5500;BME280;2772;42.700;23.304;2024-01-30T02:59:09;97126.84;;;1.86;92.23
5500;BME280;2772;42.700;23.304;2024-01-30T03:01:42;97126.84;;;1.99;93.32
5500;BME280;2772;42.700;23.304;2024-01-30T03:04:09;97130.50;;;1.98;92.63
5500;BME280;2772;42.700;23.304;2024-01-30T03:06:36;97129.66;;;1.91;92.24
5500;BME280;2772;42.700;23.304;2024-01-30T03:09:03;97121.38;;;1.94;93.68
5500;BME280;2772;42.700;23.304;2024-01-30T03:11:30;97120.97;;;1.71;93.86
5500;BME280;2772;42.700;23.304;2024-01-30T03:13:58;97122.59;;;1.72;94.44
5500;BME280;2772;42.700;23.304;2024-01-30T03:16:24;97120.56;;;1.74;93.40
5500;BME280;2772;42.700;23.304;2024-01-30T03:18:51;97129.28;;;1.87;95.10
5500;BME280;2772;42.700;23.304;2024-01-30T03:21:18;97127.25;;;1.96;94.03
5500;BME280;2772;42.700;23.304;2024-01-30T03:23:44;97118.78;;;1.87;93.43
5500;BME280;2772;42.700;23.304;2024-01-30T03:26:11;97122.41;;;1.93;93.55
5500;BME280;2772;42.700;23.304;2024-01-30T03:28:38;97123.19;;;2.06;94.32
5500;BME280;2772;42.700;23.304;2024-01-30T03:31:06;97122.59;;;1.98;92.18
5500;BME280;2772;42.700;23.304;2024-01-30T03:33:33;97122.81;;;2.09;93.56
5500;BME280;2772;42.700;23.304;2024-01-30T03:36:03;97115.50;;;2.18;91.59
5500;BME280;2772;42.700;23.304;2024-01-30T03:38:30;97112.69;;;2.19;90.36
5500;BME280;2772;42.700;23.304;2024-01-30T03:40:58;97117.34;;;2.11;89.74
5500;BME280;2772;42.700;23.304;2024-01-30T03:43:25;97105.63;;;2.13;88.68
5500;BME280;2772;42.700;23.304;2024-01-30T03:45:51;97113.09;;;2.16;88.35
5500;BME280;2772;42.700;23.304;2024-01-30T03:48:20;97113.72;;;2.12;87.66
5500;BME280;2772;42.700;23.304;2024-01-30T03:50:47;97111.50;;;2.15;86.98
5500;BME280;2772;42.700;23.304;2024-01-30T03:53:14;97107.47;;;1.93;87.81
5500;BME280;2772;42.700;23.304;2024-01-30T03:55:40;97103.59;;;1.96;86.85
5500;BME280;2772;42.700;23.304;2024-01-30T03:58:07;97113.50;;;2.07;86.55
5500;BME280;2772;42.700;23.304;2024-01-30T04:00:34;97105.03;;;1.92;86.41
5500;BME280;2772;42.700;23.304;2024-01-30T04:03:00;97103.59;;;1.89;87.34
5500;BME280;2772;42.700;23.304;2024-01-30T04:05:29;97102.78;;;1.62;87.22
5500;BME280;2772;42.700;23.304;2024-01-30T04:07:55;97099.97;;;1.64;87.73
5500;BME280;2772;42.700;23.304;2024-01-30T04:10:23;97106.25;;;1.70;87.92
5500;BME280;2772;42.700;23.304;2024-01-30T04:12:50;97092.91;;;1.64;87.77
5500;BME280;2772;42.700;23.304;2024-01-30T04:15:17;97099.56;;;1.74;87.44
5500;BME280;2772;42.700;23.304;2024-01-30T04:17:43;97095.72;;;1.63;88.25
5500;BME280;2772;42.700;23.304;2024-01-30T04:20:13;97101.00;;;1.70;87.66
5500;BME280;2772;42.700;23.304;2024-01-30T04:22:42;97105.84;;;1.73;87.75
5500;BME280;2772;42.700;23.304;2024-01-30T04:25:09;97095.13;;;1.74;87.56
5500;BME280;2772;42.700;23.304;2024-01-30T04:27:36;97107.25;;;1.69;87.96
5500;BME280;2772;42.700;23.304;2024-01-30T04:30:03;97115.72;;;1.64;87.91
5500;BME280;2772;42.700;23.304;2024-01-30T04:32:31;97115.50;;;1.65;87.91
5500;BME280;2772;42.700;23.304;2024-01-30T04:34:58;97115.34;;;1.67;88.07
5500;BME280;2772;42.700;23.304;2024-01-30T04:37:25;97118.34;;;1.71;87.71
5500;BME280;2772;42.700;23.304;2024-01-30T04:39:53;97119.16;;;1.71;87.57
5500;BME280;2772;42.700;23.304;2024-01-30T04:42:19;97121.97;;;1.63;87.82
5500;BME280;2772;42.700;23.304;2024-01-30T04:44:46;97128.06;;;1.63;88.05
5500;BME280;2772;42.700;23.304;2024-01-30T04:47:13;97123.22;;;1.67;88.41
5500;BME280;2772;42.700;23.304;2024-01-30T04:49:39;97126.03;;;1.72;88.40
5500;BME280;2772;42.700;23.304;2024-01-30T04:52:06;97132.47;;;1.56;88.15
5500;BME280;2772;42.700;23.304;2024-01-30T04:54:33;97138.69;;;1.36;88.99
5500;BME280;2772;42.700;23.304;2024-01-30T04:57:01;97141.31;;;1.42;89.89
5500;BME280;2772;42.700;23.304;2024-01-30T04:59:28;97144.34;;;1.39;90.16
5500;BME280;2772;42.700;23.304;2024-01-30T05:01:55;97141.31;;;1.42;90.17
5500;BME280;2772;42.700;23.304;2024-01-30T05:04:22;97144.13;;;1.28;90.61
5500;BME280;2772;42.700;23.304;2024-01-30T05:06:48;97145.34;;;1.32;91.39
5500;BME280;2772;42.700;23.304;2024-01-30T05:09:15;97147.69;;;1.07;92.54
5500;BME280;2772;42.700;23.304;2024-01-30T05:11:42;97139.25;;;1.12;93.77
5500;BME280;2772;42.700;23.304;2024-01-30T05:14:10;97148.69;;;1.06;94.47
5500;BME280;2772;42.700;23.304;2024-01-30T05:16:37;97147.41;;;0.89;96.02
5500;BME280;2772;42.700;23.304;2024-01-30T05:19:04;97149.22;;;0.82;96.93
5500;BME280;2772;42.700;23.304;2024-01-30T05:21:31;97155.97;;;1.04;96.56
5500;BME280;2772;42.700;23.304;2024-01-30T05:23:57;97152.94;;;1.07;96.06
5500;BME280;2772;42.700;23.304;2024-01-30T05:26:24;97148.91;;;1.11;96.48
5500;BME280;2772;42.700;23.304;2024-01-30T05:28:51;97149.94;;;1.10;96.12
5500;BME280;2772;42.700;23.304;2024-01-30T05:31:19;97145.31;;;1.12;95.48
5500;BME280;2772;42.700;23.304;2024-01-30T05:33:46;97147.31;;;1.10;95.78
5500;BME280;2772;42.700;23.304;2024-01-30T05:36:13;97144.03;;;1.02;95.44
5500;BME280;2772;42.700;23.304;2024-01-30T05:38:40;97143.44;;;1.06;95.13
5500;BME280;2772;42.700;23.304;2024-01-30T05:41:06;97147.47;;;1.02;95.37
5500;BME280;2772;42.700;23.304;2024-01-30T05:43:33;97153.75;;;1.14;94.73
5500;BME280;2772;42.700;23.304;2024-01-30T05:46:00;97154.97;;;1.12;94.48
5500;BME280;2772;42.700;23.304;2024-01-30T05:48:28;97144.47;;;1.12;94.67
5500;BME280;2772;42.700;23.304;2024-01-30T05:50:55;97139.03;;;1.13;93.93
5500;BME280;2772;42.700;23.304;2024-01-30T05:53:22;97140.19;;;0.98;93.17
5500;BME280;2772;42.700;23.304;2024-01-30T05:55:49;97142.69;;;1.12;93.24
5500;BME280;2772;42.700;23.304;2024-01-30T05:58:15;97134.81;;;1.12;91.91
5500;BME280;2772;42.700;23.304;2024-01-30T06:00:42;97142.00;;;0.97;90.46
5500;BME280;2772;42.700;23.304;2024-01-30T06:03:09;97141.56;;;0.87;90.55
5500;BME280;2772;42.700;23.304;2024-01-30T06:05:37;97145.56;;;0.83;90.04
5500;BME280;2772;42.700;23.304;2024-01-30T06:08:04;97155.28;;;0.89;89.65
5500;BME280;2772;42.700;23.304;2024-01-30T06:10:31;97147.56;;;0.81;89.79
5500;BME280;2772;42.700;23.304;2024-01-30T06:12:58;97159.72;;;0.95;89.89
5500;BME280;2772;42.700;23.304;2024-01-30T06:15:24;97155.13;;;0.97;89.51
5500;BME280;2772;42.700;23.304;2024-01-30T06:17:51;97148.09;;;1.04;88.97
5500;BME280;2772;42.700;23.304;2024-01-30T06:20:18;97161.44;;;1.16;88.46
5500;BME280;2772;42.700;23.304;2024-01-30T06:22:46;97160.66;;;1.28;88.48
5500;BME280;2772;42.700;23.304;2024-01-30T06:25:13;97157.47;;;1.26;87.67
5500;BME280;2772;42.700;23.304;2024-01-30T06:27:41;97163.25;;;1.22;87.24
5500;BME280;2772;42.700;23.304;2024-01-30T06:30:09;97153.22;;;1.32;87.20
5500;BME280;2772;42.700;23.304;2024-01-30T06:32:36;97161.72;;;1.34;87.11
5500;BME280;2772;42.700;23.304;2024-01-30T06:35:03;97164.34;;;1.34;86.47
5500;BME280;2772;42.700;23.304;2024-01-30T06:37:31;97151.22;;;1.34;86.59
5500;BME280;2772;42.700;23.304;2024-01-30T06:39:59;97159.34;;;1.58;86.32
5500;BME280;2772;42.700;23.304;2024-01-30T06:42:26;97153.06;;;1.59;85.05
5500;BME280;2772;42.700;23.304;2024-01-30T06:44:52;97160.56;;;1.69;84.63
5500;BME280;2772;42.700;23.304;2024-01-30T06:47:19;97157.94;;;1.76;83.85
5500;BME280;2772;42.700;23.304;2024-01-30T06:49:46;97156.94;;;1.77;83.91
5500;BME280;2772;42.700;23.304;2024-01-30T06:52:12;97160.38;;;1.84;83.53
5500;BME280;2772;42.700;23.304;2024-01-30T06:54:39;97159.38;;;1.72;83.28
5500;BME280;2772;42.700;23.304;2024-01-30T06:57:07;97162.19;;;1.63;83.58
5500;BME280;2772;42.700;23.304;2024-01-30T06:59:37;97163.22;;;1.82;83.82
5500;BME280;2772;42.700;23.304;2024-01-30T07:02:08;97170.09;;;1.96;82.98
5500;BME280;2772;42.700;23.304;2024-01-30T07:04:35;97167.47;;;1.96;81.95
5500;BME280;2772;42.700;23.304;2024-01-30T07:07:03;97170.69;;;2.05;81.82
5500;BME280;2772;42.700;23.304;2024-01-30T07:09:31;97163.44;;;2.13;80.69
5500;BME280;2772;42.700;23.304;2024-01-30T07:11:57;97164.63;;;1.98;80.42
5500;BME280;2772;42.700;23.304;2024-01-30T07:14:26;97160.38;;;2.03;80.85
5500;BME280;2772;42.700;23.304;2024-01-30T07:16:52;97168.47;;;2.08;79.65
5500;BME280;2772;42.700;23.304;2024-01-30T07:19:19;97152.09;;;2.13;79.00
5500;BME280;2772;42.700;23.304;2024-01-30T07:21:46;97161.00;;;2.25;78.33
5500;BME280;2772;42.700;23.304;2024-01-30T07:24:13;97177.97;;;2.35;78.46
5500;BME280;2772;42.700;23.304;2024-01-30T07:26:40;97167.66;;;2.34;76.35
5500;BME280;2772;42.700;23.304;2024-01-30T07:29:06;97150.44;;;3.14;100.00
5500;BME280;2772;42.700;23.304;2024-01-30T07:31:34;97153.19;;;3.33;100.00
5500;BME280;2772;42.700;23.304;2024-01-30T07:34:01;97159.72;;;3.23;87.50
5500;BME280;2772;42.700;23.304;2024-01-30T07:36:28;97161.41;;;3.11;77.47
5500;BME280;2772;42.700;23.304;2024-01-30T07:38:55;97161.41;;;3.05;74.32
5500;BME280;2772;42.700;23.304;2024-01-30T07:41:22;97162.06;;;2.94;73.36
5500;BME280;2772;42.700;23.304;2024-01-30T07:43:50;97165.97;;;2.72;72.44
5500;BME280;2772;42.700;23.304;2024-01-30T07:46:17;97159.13;;;2.58;72.21
5500;BME280;2772;42.700;23.304;2024-01-30T07:48:45;97162.16;;;2.61;73.31
5500;BME280;2772;42.700;23.304;2024-01-30T07:51:12;97152.66;;;2.60;73.63
5500;BME280;2772;42.700;23.304;2024-01-30T07:53:39;97155.50;;;2.59;72.67
5500;BME280;2772;42.700;23.304;2024-01-30T07:56:07;97155.91;;;2.56;72.62
5500;BME280;2772;42.700;23.304;2024-01-30T07:58:33;97156.25;;;2.72;72.13
5500;BME280;2772;42.700;23.304;2024-01-30T08:01:00;97165.41;;;2.63;71.64
5500;BME280;2772;42.700;23.304;2024-01-30T08:03:27;97156.31;;;2.46;72.12
5500;BME280;2772;42.700;23.304;2024-01-30T08:05:55;97152.88;;;2.52;71.63
5500;BME280;2772;42.700;23.304;2024-01-30T08:08:22;97145.00;;;2.46;72.48
5500;BME280;2772;42.700;23.304;2024-01-30T08:10:49;97154.69;;;2.52;72.42
5500;BME280;2772;42.700;23.304;2024-01-30T08:13:15;97149.84;;;2.49;72.26
5500;BME280;2772;42.700;23.304;2024-01-30T08:15:42;97149.44;;;2.52;71.62
5500;BME280;2772;42.700;23.304;2024-01-30T08:18:09;97144.50;;;2.75;70.82
5500;BME280;2772;42.700;23.304;2024-01-30T08:20:35;97149.19;;;2.73;70.83
5500;BME280;2772;42.700;23.304;2024-01-30T08:23:04;97147.13;;;2.81;71.74
5500;BME280;2772;42.700;23.304;2024-01-30T08:25:30;97148.97;;;2.81;70.75
5500;BME280;2772;42.700;23.304;2024-01-30T08:27:57;97152.97;;;2.90;70.27
5500;BME280;2772;42.700;23.304;2024-01-30T08:30:24;97144.41;;;3.07;70.48
5500;BME280;2772;42.700;23.304;2024-01-30T08:32:50;97157.28;;;3.22;69.38
5500;BME280;2772;42.700;23.304;2024-01-30T08:35:17;97171.06;;;3.24;69.90
5500;BME280;2772;42.700;23.304;2024-01-30T08:37:44;97164.34;;;3.28;68.80
5500;BME280;2772;42.700;23.304;2024-01-30T08:40:12;97164.00;;;3.62;87.33
5500;BME280;2772;42.700;23.304;2024-01-30T08:42:39;97163.00;;;3.57;76.70
5500;BME280;2772;42.700;23.304;2024-01-30T08:45:06;97162.47;;;3.42;70.83
5500;BME280;2772;42.700;23.304;2024-01-30T08:47:33;97162.78;;;3.58;69.68
5500;BME280;2772;42.700;23.304;2024-01-30T08:50:00;97161.66;;;3.79;68.78
5500;BME280;2772;42.700;23.304;2024-01-30T08:52:27;97164.78;;;3.94;68.03
5500;BME280;2772;42.700;23.304;2024-01-30T08:54:54;97171.47;;;3.96;66.36
5500;BME280;2772;42.700;23.304;2024-01-30T08:57:22;97172.00;;;4.05;66.08
5500;BME280;2772;42.700;23.304;2024-01-30T08:59:48;97166.25;;;3.90;65.29
5500;BME280;2772;42.700;23.304;2024-01-30T09:02:15;97176.75;;;3.96;67.71
5500;BME280;2772;42.700;23.304;2024-01-30T09:04:43;97172.56;;;3.82;69.60
5500;BME280;2772;42.700;23.304;2024-01-30T09:07:10;97178.16;;;3.61;71.40
5500;BME280;2772;42.700;23.304;2024-01-30T09:09:38;97188.06;;;3.66;72.04
5500;BME280;2772;42.700;23.304;2024-01-30T09:12:07;97182.53;;;3.36;73.92
5500;BME280;2772;42.700;23.304;2024-01-30T09:14:36;97178.53;;;3.27;74.15
5500;BME280;2772;42.700;23.304;2024-01-30T09:17:03;97172.66;;;3.25;74.59
5500;BME280;2772;42.700;23.304;2024-01-30T09:19:30;97167.06;;;3.08;77.08
5500;BME280;2772;42.700;23.304;2024-01-30T09:21:57;97179.56;;;3.26;76.59
5500;BME280;2772;42.700;23.304;2024-01-30T09:24:24;97173.03;;;3.35;75.24
5500;BME280;2772;42.700;23.304;2024-01-30T09:26:50;97170.88;;;3.19;75.36
5500;BME280;2772;42.700;23.304;2024-01-30T09:29:17;97163.69;;;3.39;74.81
5500;BME280;2772;42.700;23.304;2024-01-30T09:31:45;97164.28;;;3.41;74.17
5500;BME280;2772;42.700;23.304;2024-01-30T09:34:12;97157.69;;;3.25;73.43
5500;BME280;2772;42.700;23.304;2024-01-30T09:36:39;97150.44;;;3.14;73.98
5500;BME280;2772;42.700;23.304;2024-01-30T09:39:06;97159.34;;;3.20;74.74
5500;BME280;2772;42.700;23.304;2024-01-30T09:41:38;97149.78;;;3.25;73.90
5500;BME280;2772;42.700;23.304;2024-01-30T09:44:09;97154.59;;;3.42;74.33
5500;BME280;2772;42.700;23.304;2024-01-30T09:46:37;97153.38;;;3.38;73.57
5500;BME280;2772;42.700;23.304;2024-01-30T09:49:06;97142.19;;;3.42;72.65
5500;BME280;2772;42.700;23.304;2024-01-30T09:51:34;97148.03;;;3.51;72.64
5500;BME280;2772;42.700;23.304;2024-01-30T09:54:02;97149.13;;;3.37;72.23
5500;BME280;2772;42.700;23.304;2024-01-30T09:56:29;97150.75;;;3.31;72.60
5500;BME280;2772;42.700;23.304;2024-01-30T09:58:56;97142.72;;;3.26;71.72
5500;BME280;2772;42.700;23.304;2024-01-30T10:01:23;97138.56;;;3.43;72.85
5500;BME280;2772;42.700;23.304;2024-01-30T10:03:50;97137.53;;;3.44;72.76
5500;BME280;2772;42.700;23.304;2024-01-30T10:06:20;97141.69;;;3.27;73.27
5500;BME280;2772;42.700;23.304;2024-01-30T10:08:47;97137.91;;;3.10;73.37
5500;BME280;2772;42.700;23.304;2024-01-30T10:11:14;97132.25;;;3.06;73.31
5500;BME280;2772;42.700;23.304;2024-01-30T10:13:41;97130.91;;;2.91;74.28
5500;BME280;2772;42.700;23.304;2024-01-30T10:16:08;97133.31;;;2.99;74.29
5500;BME280;2772;42.700;23.304;2024-01-30T10:18:34;97129.06;;;2.98;75.60
5500;BME280;2772;42.700;23.304;2024-01-30T10:21:01;97135.06;;;3.11;75.09
5500;BME280;2772;42.700;23.304;2024-01-30T10:23:32;97126.09;;;3.25;73.52
5500;BME280;2772;42.700;23.304;2024-01-30T10:25:59;97124.28;;;3.26;73.36
5500;BME280;2772;42.700;23.304;2024-01-30T10:28:27;97133.38;;;3.30;72.33
5500;BME280;2772;42.700;23.304;2024-01-30T10:30:58;97129.81;;;3.49;71.27
5500;BME280;2772;42.700;23.304;2024-01-30T10:33:26;97127.41;;;3.48;70.63
5500;BME280;2772;42.700;23.304;2024-01-30T10:35:55;97129.09;;;3.67;70.07
5500;BME280;2772;42.700;23.304;2024-01-30T10:38:30;97129.44;;;3.77;69.11
5500;BME280;2772;42.700;23.304;2024-01-30T10:40:58;97131.28;;;3.76;68.80
5500;BME280;2772;42.700;23.304;2024-01-30T10:43:31;97139.09;;;3.83;68.49
5500;BME280;2772;42.700;23.304;2024-01-30T10:46:04;97119.13;;;4.00;68.07
5500;BME280;2772;42.700;23.304;2024-01-30T10:48:36;97116.38;;;3.88;66.97
5500;BME280;2772;42.700;23.304;2024-01-30T10:51:10;97125.81;;;4.02;67.11
5500;BME280;2772;42.700;23.304;2024-01-30T10:53:39;97111.44;;;4.23;66.94
5500;BME280;2772;42.700;23.304;2024-01-30T10:56:06;97110.22;;;4.19;67.49
5500;BME280;2772;42.700;23.304;2024-01-30T10:58:34;97105.19;;;4.17;66.55
5500;BME280;2772;42.700;23.304;2024-01-30T11:01:01;97106.75;;;3.76;67.96
5500;BME280;2772;42.700;23.304;2024-01-30T11:03:29;97105.31;;;4.04;68.60
5500;BME280;2772;42.700;23.304;2024-01-30T11:05:59;97103.13;;;4.19;67.48
5500;BME280;2772;42.700;23.304;2024-01-30T11:08:26;97101.81;;;4.10;67.87
5500;BME280;2772;42.700;23.304;2024-01-30T11:10:56;97100.41;;;4.08;68.32
5500;BME280;2772;42.700;23.304;2024-01-30T11:13:27;97097.22;;;4.24;68.08
5500;BME280;2772;42.700;23.304;2024-01-30T11:15:55;97100.72;;;4.18;66.64
5500;BME280;2772;42.700;23.304;2024-01-30T11:18:25;97098.53;;;4.15;67.51
5500;BME280;2772;42.700;23.304;2024-01-30T11:20:52;97082.16;;;4.31;67.10
5500;BME280;2772;42.700;23.304;2024-01-30T11:23:22;97084.41;;;4.27;66.68
5500;BME280;2772;42.700;23.304;2024-01-30T11:25:49;97086.00;;;4.28;66.62
5500;BME280;2772;42.700;23.304;2024-01-30T11:28:17;97085.84;;;4.23;67.15
5500;BME280;2772;42.700;23.304;2024-01-30T11:30:44;97085.19;;;4.28;67.88
5500;BME280;2772;42.700;23.304;2024-01-30T11:33:14;97095.13;;;4.32;67.06
5500;BME280;2772;42.700;23.304;2024-01-30T11:35:41;97086.50;;;4.19;66.83
5500;BME280;2772;42.700;23.304;2024-01-30T11:38:10;97090.91;;;4.25;66.43
5500;BME280;2772;42.700;23.304;2024-01-30T11:40:37;97087.31;;;4.19;66.99
5500;BME280;2772;42.700;23.304;2024-01-30T11:43:07;97081.94;;;4.08;67.47
5500;BME280;2772;42.700;23.304;2024-01-30T11:45:36;97083.13;;;3.87;68.47
5500;BME280;2772;42.700;23.304;2024-01-30T11:48:03;97082.00;;;4.01;69.16
5500;BME280;2772;42.700;23.304;2024-01-30T11:50:30;97076.59;;;3.96;68.53
5500;BME280;2772;42.700;23.304;2024-01-30T11:52:57;97080.66;;;3.92;68.94
5500;BME280;2772;42.700;23.304;2024-01-30T11:55:25;97077.81;;;3.69;70.37
5500;BME280;2772;42.700;23.304;2024-01-30T11:57:55;97075.19;;;3.69;71.07
5500;BME280;2772;42.700;23.304;2024-01-30T12:00:21;97071.81;;;3.62;72.19
5500;BME280;2772;42.700;23.304;2024-01-30T12:02:53;97061.78;;;3.71;72.21
5500;BME280;2772;42.700;23.304;2024-01-30T12:05:22;97069.47;;;3.72;71.61
5500;BME280;2772;42.700;23.304;2024-01-30T12:07:49;97045.88;;;3.59;72.09
5500;BME280;2772;42.700;23.304;2024-01-30T12:10:20;97050.59;;;3.75;71.85
5500;BME280;2772;42.700;23.304;2024-01-30T12:12:49;97042.47;;;3.77;71.61
5500;BME280;2772;42.700;23.304;2024-01-30T12:15:16;97031.56;;;3.73;71.15
5500;BME280;2772;42.700;23.304;2024-01-30T12:17:43;97035.13;;;3.85;70.62
5500;BME280;2772;42.700;23.304;2024-01-30T12:20:13;97033.50;;;3.84;70.16
5500;BME280;2772;42.700;23.304;2024-01-30T12:22:42;97035.34;;;3.84;70.52
5500;BME280;2772;42.700;23.304;2024-01-30T12:25:10;97038.50;;;3.92;70.04
5500;BME280;2772;42.700;23.304;2024-01-30T12:27:37;97027.59;;;3.89;70.08
5500;BME280;2772;42.700;23.304;2024-01-30T12:30:05;97041.56;;;3.89;69.83
5500;BME280;2772;42.700;23.304;2024-01-30T12:32:34;97014.31;;;3.77;70.63
5500;BME280;2772;42.700;23.304;2024-01-30T12:35:01;97027.31;;;3.97;70.98
5500;BME280;2772;42.700;23.304;2024-01-30T12:37:29;97025.03;;;4.00;71.01
5500;BME280;2772;42.700;23.304;2024-01-30T12:39:56;97024.50;;;4.16;69.38
5500;BME280;2772;42.700;23.304;2024-01-30T12:42:23;97024.66;;;3.97;68.78
5500;BME280;2772;42.700;23.304;2024-01-30T12:44:50;97023.06;;;4.14;69.09
5500;BME280;2772;42.700;23.304;2024-01-30T12:47:17;97020.00;;;3.99;68.43
5500;BME280;2772;42.700;23.304;2024-01-30T12:49:43;97013.13;;;4.16;69.03
5500;BME280;2772;42.700;23.304;2024-01-30T12:52:10;97001.69;;;4.22;68.30
5500;BME280;2772;42.700;23.304;2024-01-30T12:54:39;97009.75;;;4.27;67.98
5500;BME280;2772;42.700;23.304;2024-01-30T12:57:05;97006.16;;;4.03;69.01
5500;BME280;2772;42.700;23.304;2024-01-30T12:59:32;97003.25;;;4.11;68.87
5500;BME280;2772;42.700;23.304;2024-01-30T13:02:00;96996.28;;;4.35;68.45
5500;BME280;2772;42.700;23.304;2024-01-30T13:04:27;96997.78;;;4.31;67.76
5500;BME280;2772;42.700;23.304;2024-01-30T13:06:53;97000.31;;;4.37;68.45
5500;BME280;2772;42.700;23.304;2024-01-30T13:09:20;97000.75;;;4.34;68.33
5500;BME280;2772;42.700;23.304;2024-01-30T13:11:49;96996.28;;;4.35;67.81
5500;BME280;2772;42.700;23.304;2024-01-30T13:14:16;96994.25;;;4.37;68.74
5500;BME280;2772;42.700;23.304;2024-01-30T13:16:43;96995.19;;;4.24;67.48
5500;BME280;2772;42.700;23.304;2024-01-30T13:19:09;96999.13;;;4.15;67.86